Time;durP1;ratioP1;P1;durP2;ratioP2;P2;SDS_P1;SDS_P2;PMS_P1;PMS_P2;Temp;Humidity;BMP_temperature;BMP_pressure;BME280_temperature;BME280_humidity;BME280_pressure;Samples;Min_cycle;Max_cycle;Signal;HPM_P1;HPM_P2
2023/09/26 00:01:03;;;;;;;0.20;0.20;;;;;;;11.56;78.22;98259.31;4993892;28;20056;-71
2023/09/26 00:03:31;;;;;;;0.20;0.20;;;;;;;11.59;77.50;98250.91;4998109;28;20053;-74
2023/09/26 00:06:01;;;;;;;0.20;0.20;;;;;;;11.45;78.05;98254.41;4985042;28;20034;-72
2023/09/26 00:08:29;;;;;;;0.30;0.30;;;;;;;11.39;78.15;98254.16;4995302;28;20037;-73
2023/09/26 00:10:57;;;;;;;0.20;0.20;;;;;;;11.45;78.21;98257.91;4983642;28;20043;-73
2023/09/26 00:13:25;;;;;;;0.13;0.13;;;;;;;11.46;77.96;98248.88;4996006;28;20136;-73
2023/09/26 00:15:53;;;;;;;0.20;0.20;;;;;;;11.31;78.13;98256.91;4990889;28;20506;-73
2023/09/26 00:18:20;;;;;;;0.20;0.20;;;;;;;11.33;78.23;98246.00;4993833;28;20046;-72
2023/09/26 00:20:48;;;;;;;0.20;0.20;;;;;;;11.35;78.14;98244.00;4995544;28;20121;-72
2023/09/26 00:23:17;;;;;;;0.20;0.20;;;;;;;11.37;77.73;98242.81;4988906;28;20046;-72
2023/09/26 00:25:45;;;;;;;0.30;0.30;;;;;;;11.36;77.81;98243.81;5000429;28;20042;-72
2023/09/26 00:28:13;;;;;;;0.20;0.20;;;;;;;11.32;78.19;98244.34;4988476;28;20472;-72
2023/09/26 00:30:41;;;;;;;0.20;0.20;;;;;;;11.27;78.14;98246.75;4996114;28;20049;-73
2023/09/26 00:33:09;;;;;;;0.30;0.30;;;;;;;11.26;78.03;98243.25;4988642;28;20047;-72
2023/09/26 00:35:37;;;;;;;0.20;0.20;;;;;;;11.27;77.99;98238.75;4996069;28;20033;-73
2023/09/26 00:38:05;;;;;;;0.20;0.20;;;;;;;11.17;78.04;98239.00;4981502;28;20112;-73
2023/09/26 00:40:34;;;;;;;0.25;0.25;;;;;;;11.10;78.32;98245.25;4992207;28;20092;-72
2023/09/26 00:43:02;;;;;;;0.30;0.30;;;;;;;11.05;78.86;98235.13;4988187;28;20137;-71
2023/09/26 00:45:30;;;;;;;0.30;0.30;;;;;;;11.02;79.04;98236.31;4977754;28;20042;-72
2023/09/26 00:47:59;;;;;;;0.30;0.30;;;;;;;11.08;78.24;98247.28;4995901;28;20081;-71
2023/09/26 00:50:27;;;;;;;0.28;0.28;;;;;;;11.02;78.73;98244.31;4984504;28;20074;-73
2023/09/26 00:52:55;;;;;;;0.15;0.15;;;;;;;10.96;78.80;98237.03;4998282;28;20045;-72
2023/09/26 00:55:24;;;;;;;0.20;0.20;;;;;;;10.90;79.31;98242.28;4995701;28;20496;-71
2023/09/26 00:57:54;;;;;;;0.20;0.20;;;;;;;11.02;78.60;98233.63;4984014;28;20051;-72
2023/09/26 01:00:23;;;;;;;0.20;0.20;;;;;;;11.11;78.18;98245.06;4998260;28;20051;-72
2023/09/26 01:02:51;;;;;;;0.20;0.20;;;;;;;10.96;78.43;98237.03;4995298;28;20042;-72
2023/09/26 01:05:19;;;;;;;0.15;0.15;;;;;;;11.09;78.15;98233.75;4985219;28;20039;-71
2023/09/26 01:07:47;;;;;;;0.20;0.20;;;;;;;10.97;78.22;98229.84;4994093;28;20096;-71
2023/09/26 01:10:15;;;;;;;0.08;0.08;;;;;;;10.97;78.45;98229.84;4989095;28;20518;-71
2023/09/26 01:12:43;;;;;;;0.15;0.15;;;;;;;11.02;78.02;98235.47;4994679;28;20043;-70
2023/09/26 01:15:12;;;;;;;0.17;0.17;;;;;;;10.97;77.46;98237.88;5001392;28;20385;-72
2023/09/26 01:17:40;;;;;;;0.20;0.20;;;;;;;10.90;78.01;98231.59;4996845;28;20071;-73
2023/09/26 01:20:13;;;;;;;0.32;0.32;;;;;;;10.67;78.95;98231.63;4997723;28;21417;-72
2023/09/26 01:22:45;;;;;;;0.20;0.20;;;;;;;10.66;78.98;98235.31;4990442;28;20043;-72
2023/09/26 01:25:15;;;;;;;0.13;0.13;;;;;;;10.69;78.89;98236.78;4992528;28;20135;-75
2023/09/26 01:27:43;;;;;;;0.20;0.20;;;;;;;10.62;78.83;98224.13;4973872;28;20142;-73
2023/09/26 01:30:12;;;;;;;0.28;0.28;;;;;;;10.55;79.11;98222.38;4982034;28;20046;-76
2023/09/26 01:32:39;;;;;;;0.13;0.13;;;;;;;10.51;79.47;98224.56;4996242;28;20046;-75
2023/09/26 01:35:08;;;;;;;0.20;0.20;;;;;;;10.67;79.21;98220.94;4990334;28;20053;-73
2023/09/26 01:37:35;;;;;;;0.10;0.10;;;;;;;10.62;79.68;98229.47;4988654;28;20496;-74
2023/09/26 01:40:15;;;;;;;0.20;0.20;;;;;;;10.66;79.66;98227.28;4977248;28;20054;-73
2023/09/26 01:42:44;;;;;;;0.30;0.30;;;;;;;10.64;79.72;98222.13;4987056;28;20034;-73
2023/09/26 01:45:12;;;;;;;0.15;0.15;;;;;;;10.63;79.63;98223.13;4986511;28;20102;-72
2023/09/26 01:47:46;;;;;;;0.20;0.20;;;;;;;10.61;80.04;98222.47;5003252;28;20558;-74
2023/09/26 01:50:14;;;;;;;0.15;0.15;;;;;;;10.64;79.81;98221.28;4993356;28;20046;-73
2023/09/26 01:52:42;;;;;;;0.28;0.28;;;;;;;10.76;79.11;98224.38;4999816;28;20043;-74
2023/09/26 01:55:12;;;;;;;0.20;0.20;;;;;;;10.62;79.33;98217.97;4996884;28;20058;-74
2023/09/26 01:57:40;;;;;;;0.22;0.22;;;;;;;10.53;79.77;98221.72;5003548;28;20097;-74
2023/09/26 02:00:11;;;;;;;0.10;0.10;;;;;;;10.65;78.79;98222.97;4981217;28;20070;-74
2023/09/26 02:02:40;;;;;;;0.10;0.10;;;;;;;10.63;78.35;98215.13;4982982;28;20544;-73
2023/09/26 02:05:09;;;;;;;0.20;0.20;;;;;;;10.50;78.48;98208.72;4978120;28;20108;-75
2023/09/26 02:07:37;;;;;;;0.30;0.30;;;;;;;10.62;78.09;98220.63;4989020;28;20048;-75
2023/09/26 02:10:06;;;;;;;0.20;0.20;;;;;;;10.59;77.69;98221.00;4983028;28;20467;-75
2023/09/26 02:12:35;;;;;;;0.10;0.10;;;;;;;10.58;77.08;98228.19;4981851;28;20054;-73
2023/09/26 02:15:04;;;;;;;0.20;0.20;;;;;;;10.58;76.79;98220.19;4991429;28;20046;-74
2023/09/26 02:17:33;;;;;;;0.22;0.22;;;;;;;10.61;76.84;98219.81;4978401;28;20054;-74
2023/09/26 02:20:06;;;;;;;0.20;0.20;;;;;;;10.43;77.54;98224.63;4990782;28;20431;-73
2023/09/26 02:22:35;;;;;;;0.20;0.20;;;;;;;10.35;77.96;98226.53;4980413;28;20576;-72
2023/09/26 02:25:04;;;;;;;0.20;0.20;;;;;;;10.34;78.46;98227.53;4990448;28;20124;-74
2023/09/26 02:27:31;;;;;;;0.20;0.20;;;;;;;10.26;78.34;98223.91;4986062;28;20046;-74
2023/09/26 02:29:59;;;;;;;0.20;0.20;;;;;;;10.17;78.97;98224.13;4984828;28;20051;-74
2023/09/26 02:32:27;;;;;;;0.10;0.10;;;;;;;10.28;78.55;98226.38;4980163;28;20484;-72
2023/09/26 02:34:56;;;;;;;0.20;0.20;;;;;;;10.29;77.95;98225.38;4990255;28;20050;-73
2023/09/26 02:37:23;;;;;;;0.20;0.20;;;;;;;10.13;78.29;98230.81;4982915;28;20038;-73
2023/09/26 02:39:51;;;;;;;0.10;0.10;;;;;;;10.03;78.69;98233.69;4993813;28;20049;-72
2023/09/26 02:42:19;;;;;;;0.20;0.20;;;;;;;10.12;78.25;98221.97;4988944;28;20501;-71
2023/09/26 02:44:46;;;;;;;0.10;0.10;;;;;;;9.97;79.08;98228.25;4989689;28;20039;-69
2023/09/26 02:47:14;;;;;;;0.10;0.10;;;;;;;10.01;78.43;98225.03;5004732;28;20046;-74
2023/09/26 02:49:42;;;;;;;0.15;0.15;;;;;;;9.90;78.36;98228.09;4993238;28;20121;-73
2023/09/26 02:52:11;;;;;;;0.10;0.10;;;;;;;9.84;78.77;98224.31;4991965;28;20057;-72
2023/09/26 02:54:38;;;;;;;0.30;0.30;;;;;;;9.89;78.28;98224.59;5008256;28;20042;-72
2023/09/26 02:57:06;;;;;;;0.20;0.20;;;;;;;9.97;77.61;98220.25;4989508;28;20049;-72
2023/09/26 02:59:36;;;;;;;0.20;0.20;;;;;;;9.85;78.27;98219.81;4988025;28;20050;-72
2023/09/26 03:02:04;;;;;;;0.10;0.10;;;;;;;9.93;78.00;98217.09;4991841;28;20052;-74
2023/09/26 03:04:31;;;;;;;0.30;0.30;;;;;;;9.85;78.08;98217.97;4981856;28;20054;-72
2023/09/26 03:06:59;;;;;;;0.30;0.30;;;;;;;9.90;77.91;98218.25;4989873;28;20038;-73
2023/09/26 03:09:29;;;;;;;0.20;0.20;;;;;;;9.68;79.02;98212.88;4997276;28;20076;-73
2023/09/26 03:11:56;;;;;;;0.20;0.20;;;;;;;9.62;78.91;98217.06;4978838;28;20053;-73
2023/09/26 03:14:25;;;;;;;0.13;0.13;;;;;;;9.55;78.96;98214.25;4997394;28;20043;-73
2023/09/26 03:16:52;;;;;;;0.10;0.10;;;;;;;9.49;79.50;98211.44;4987828;28;20177;-74
2023/09/26 03:19:23;;;;;;;0.20;0.20;;;;;;;9.51;79.37;98215.63;4979284;28;20109;-73
2023/09/26 03:21:52;;;;;;;0.10;0.10;;;;;;;9.70;78.90;98214.34;4976810;28;20519;-73
2023/09/26 03:24:20;;;;;;;0.20;0.20;;;;;;;9.67;78.79;98211.19;4992160;28;20053;-73
2023/09/26 03:26:49;;;;;;;0.10;0.10;;;;;;;9.58;78.86;98218.41;4990887;28;20590;-74
2023/09/26 03:29:16;;;;;;;0.20;0.20;;;;;;;9.51;79.11;98217.44;4989567;28;20046;-74
2023/09/26 03:31:45;;;;;;;0.28;0.28;;;;;;;9.51;79.40;98228.09;5004253;28;20049;-73
2023/09/26 03:34:13;;;;;;;0.25;0.25;;;;;;;9.54;79.09;98219.78;4999015;28;20097;-74
2023/09/26 03:36:41;;;;;;;0.20;0.20;;;;;;;9.45;79.22;98218.94;4995142;28;20055;-74
2023/09/26 03:39:09;;;;;;;0.10;0.10;;;;;;;9.34;79.45;98213.19;4977819;28;20050;-75
2023/09/26 03:41:37;;;;;;;0.20;0.20;;;;;;;9.27;79.93;98209.53;4981286;28;20070;-74
2023/09/26 03:44:07;;;;;;;0.20;0.20;;;;;;;9.26;80.10;98208.69;4983995;28;20046;-73
2023/09/26 03:46:34;;;;;;;0.13;0.13;;;;;;;9.27;79.90;98201.53;4983835;28;20034;-73
2023/09/26 03:49:03;;;;;;;0.30;0.30;;;;;;;9.20;80.23;98207.56;4988948;28;20046;-73
2023/09/26 03:51:31;;;;;;;0.25;0.25;;;;;;;9.28;79.77;98204.03;4982871;28;20051;-73
2023/09/26 03:53:58;;;;;;;0.30;0.30;;;;;;;9.32;79.61;98208.03;4994952;28;20070;-73
2023/09/26 03:56:26;;;;;;;0.20;0.20;;;;;;;9.32;79.83;98200.03;4984725;28;20047;-73
2023/09/26 03:58:54;;;;;;;0.20;0.20;;;;;;;9.30;79.99;98202.03;4985477;28;20042;-71
2023/09/26 04:01:23;;;;;;;0.20;0.20;;;;;;;9.25;80.33;98195.53;4982286;28;20137;-72
2023/09/26 04:03:52;;;;;;;0.35;0.30;;;;;;;9.24;80.15;98199.22;4993597;28;20046;-74
2023/09/26 04:06:20;;;;;;;0.20;0.20;;;;;;;9.30;80.09;98193.22;4992916;28;20065;-73
2023/09/26 04:08:48;;;;;;;0.20;0.20;;;;;;;9.34;79.96;98189.22;4992675;28;20070;-74
2023/09/26 04:11:16;;;;;;;0.20;0.20;;;;;;;9.50;79.40;98192.63;4992901;28;20038;-73
2023/09/26 04:13:44;;;;;;;0.20;0.20;;;;;;;9.54;79.18;98193.97;4990384;28;20125;-73
2023/09/26 04:16:12;;;;;;;0.30;0.30;;;;;;;9.55;79.13;98192.13;4987505;28;20047;-73
2023/09/26 04:18:41;;;;;;;0.10;0.10;;;;;;;9.61;78.86;98183.44;4993667;28;20038;-73
2023/09/26 04:21:09;;;;;;;0.20;0.20;;;;;;;9.58;78.91;98186.44;4990562;28;20050;-74
2023/09/26 04:23:39;;;;;;;0.30;0.30;;;;;;;9.50;78.98;98186.47;4990003;28;20046;-75
2023/09/26 04:26:13;;;;;;;0.28;0.28;;;;;;;9.35;79.33;98186.34;4989242;28;20411;-74
2023/09/26 04:28:41;;;;;;;0.25;0.25;;;;;;;9.30;79.57;98187.88;4989688;28;20042;-75
2023/09/26 04:31:13;;;;;;;0.20;0.20;;;;;;;9.32;79.28;98184.06;4983626;28;20503;-74
2023/09/26 04:33:42;;;;;;;0.20;0.20;;;;;;;9.30;79.30;98182.56;4989587;28;20514;-74
2023/09/26 04:36:09;;;;;;;0.20;0.20;;;;;;;9.18;79.13;98180.25;4983285;28;20050;-73
2023/09/26 04:38:38;;;;;;;0.20;0.20;;;;;;;9.03;80.14;98187.28;4986744;28;20071;-73
2023/09/26 04:41:05;;;;;;;0.30;0.30;;;;;;;8.95;80.45;98187.31;4979109;28;20046;-74
2023/09/26 04:43:34;;;;;;;0.20;0.20;;;;;;;9.03;80.20;98181.94;4987889;28;20165;-75
2023/09/26 04:46:02;;;;;;;0.22;0.22;;;;;;;9.26;78.98;98184.72;4988596;28;20174;-72
2023/09/26 04:48:30;;;;;;;0.13;0.13;;;;;;;9.25;79.13;98185.72;4986096;28;20062;-73
2023/09/26 04:50:59;;;;;;;0.30;0.20;;;;;;;9.10;79.57;98184.78;4988430;28;20441;-73
2023/09/26 04:53:26;;;;;;;0.30;0.30;;;;;;;9.19;79.20;98187.25;4991545;28;20043;-73
2023/09/26 04:55:54;;;;;;;0.20;0.20;;;;;;;9.05;79.63;98182.63;4988405;28;20039;-73
2023/09/26 04:58:22;;;;;;;0.20;0.20;;;;;;;9.11;79.53;98181.94;4983960;28;20042;-72
2023/09/26 05:00:49;;;;;;;0.10;0.10;;;;;;;8.99;79.90;98182.47;4987392;28;20108;-72
2023/09/26 05:03:17;;;;;;;0.20;0.20;;;;;;;8.90;80.71;98191.47;4989829;28;20492;-72
2023/09/26 05:05:45;;;;;;;0.17;0.17;;;;;;;8.94;80.59;98185.63;4991653;28;20042;-73
2023/09/26 05:08:14;;;;;;;0.32;0.32;;;;;;;8.97;80.69;98189.81;4990531;28;20460;-73
2023/09/26 05:10:42;;;;;;;0.20;0.20;;;;;;;8.93;80.20;98186.63;4987414;28;20049;-72
2023/09/26 05:13:09;;;;;;;0.20;0.20;;;;;;;8.95;80.11;98200.63;4987537;28;20125;-72
2023/09/26 05:15:38;;;;;;;0.20;0.20;;;;;;;8.94;79.92;98198.94;4985931;28;20049;-75
2023/09/26 05:18:06;;;;;;;0.20;0.20;;;;;;;8.89;80.58;98197.81;4987283;28;20046;-72
2023/09/26 05:20:34;;;;;;;0.20;0.20;;;;;;;8.91;80.88;98199.31;4992184;28;20046;-72
2023/09/26 05:23:03;;;;;;;0.30;0.30;;;;;;;9.01;80.76;98191.97;4990336;28;20069;-72
2023/09/26 05:25:36;;;;;;;0.20;0.20;;;;;;;8.93;80.53;98199.16;4994966;28;20050;-71
2023/09/26 05:28:05;;;;;;;0.20;0.20;;;;;;;8.86;81.17;98193.66;4989644;28;20061;-74
2023/09/26 05:30:32;;;;;;;0.17;0.17;;;;;;;8.90;80.93;98192.31;4980093;28;20046;-73
2023/09/26 05:33:00;;;;;;;0.13;0.13;;;;;;;8.97;81.05;98193.28;4991757;28;20478;-73
2023/09/26 05:35:28;;;;;;;0.20;0.20;;;;;;;9.13;80.58;98185.28;4991894;28;20050;-73
2023/09/26 05:37:55;;;;;;;0.20;0.20;;;;;;;9.11;80.34;98191.78;4994973;28;20043;-75
2023/09/26 05:40:23;;;;;;;0.40;0.40;;;;;;;9.14;80.36;98189.56;4993502;28;20799;-72
2023/09/26 05:42:52;;;;;;;0.20;0.20;;;;;;;9.11;80.14;98195.28;4994909;28;20052;-74
2023/09/26 05:45:20;;;;;;;0.20;0.20;;;;;;;9.09;79.90;98194.59;4987590;28;20058;-73
2023/09/26 05:47:48;;;;;;;0.30;0.30;;;;;;;9.11;79.99;98199.75;4995162;28;20038;-73
2023/09/26 05:50:16;;;;;;;0.10;0.10;;;;;;;9.09;80.00;98199.09;4986541;28;20482;-73
2023/09/26 05:52:43;;;;;;;0.20;0.20;;;;;;;9.12;80.18;98202.25;4993933;28;20130;-72
2023/09/26 05:55:11;;;;;;;0.20;0.20;;;;;;;9.07;80.31;98199.25;4991637;28;20385;-73
2023/09/26 05:57:39;;;;;;;0.20;0.20;;;;;;;9.12;80.49;98198.75;4981257;28;20566;-75
2023/09/26 06:00:12;;;;;;;0.20;0.20;;;;;;;9.06;80.28;98202.91;4991502;28;20529;-72
2023/09/26 06:02:41;;;;;;;0.20;0.20;;;;;;;9.05;80.75;98201.25;4992436;28;20045;-73
2023/09/26 06:05:11;;;;;;;0.30;0.30;;;;;;;9.03;80.50;98199.78;4991076;28;20121;-73
2023/09/26 06:07:39;;;;;;;0.32;0.32;;;;;;;9.07;80.77;98196.59;4993243;28;20100;-73
2023/09/26 06:10:10;;;;;;;0.30;0.30;;;;;;;9.15;80.71;98191.25;4990335;28;20503;-75
2023/09/26 06:12:38;;;;;;;0.10;0.10;;;;;;;9.16;80.29;98200.91;4992359;28;20049;-72
2023/09/26 06:15:09;;;;;;;0.28;0.20;;;;;;;9.28;80.73;98192.53;4988384;28;20110;-72
2023/09/26 06:17:37;;;;;;;0.22;0.22;;;;;;;9.32;80.91;98196.53;4991765;28;20057;-73
2023/09/26 06:20:08;;;;;;;0.40;0.30;;;;;;;9.29;80.67;98195.03;4993252;28;20066;-73
2023/09/26 06:22:36;;;;;;;0.20;0.20;;;;;;;9.38;80.89;98195.84;4993978;28;20682;-73
2023/09/26 06:25:04;;;;;;;0.22;0.22;;;;;;;9.47;80.83;98190.31;4992586;28;20134;-74
2023/09/26 06:27:35;;;;;;;0.40;0.40;;;;;;;9.53;80.95;98189.63;4989969;28;20050;-72
2023/09/26 06:30:04;;;;;;;0.20;0.20;;;;;;;9.60;80.78;98192.41;4991655;28;20044;-73
2023/09/26 06:32:34;;;;;;;0.20;0.20;;;;;;;9.66;80.72;98182.88;4988242;28;20677;-74
2023/09/26 06:35:02;;;;;;;0.20;0.20;;;;;;;9.76;81.20;98195.00;4989802;28;20527;-73
2023/09/26 06:37:30;;;;;;;0.20;0.20;;;;;;;9.81;80.39;98189.97;4993921;28;20042;-73
2023/09/26 06:40:04;;;;;;;0.22;0.22;;;;;;;9.87;81.09;98197.28;4990084;28;20462;-74
2023/09/26 06:42:32;;;;;;;0.30;0.30;;;;;;;10.02;81.12;98196.53;4990825;28;20050;-74
2023/09/26 06:44:59;;;;;;;0.20;0.20;;;;;;;10.22;80.53;98187.09;4988530;28;20074;-73
2023/09/26 06:47:27;;;;;;;0.22;0.22;;;;;;;10.25;79.56;98187.56;4980272;28;20119;-74
2023/09/26 06:49:57;;;;;;;0.20;0.20;;;;;;;10.28;79.31;98194.38;4987242;28;20530;-73
2023/09/26 06:52:25;;;;;;;0.20;0.20;;;;;;;10.33;79.69;98192.00;4984369;28;20057;-73
2023/09/26 06:54:53;;;;;;;0.52;0.52;;;;;;;10.34;79.77;98188.34;4992149;28;20526;-73
2023/09/26 06:57:26;;;;;;;0.28;0.28;;;;;;;10.40;79.58;98194.78;4988366;28;20078;-74
2023/09/26 06:59:55;;;;;;;0.30;0.30;;;;;;;10.50;79.95;98193.53;4992572;28;20049;-73
2023/09/26 07:02:24;;;;;;;0.30;0.30;;;;;;;10.56;79.82;98182.16;4986592;28;20452;-74
2023/09/26 07:04:54;;;;;;;0.22;0.22;;;;;;;10.68;79.65;98185.22;4992407;28;20042;-73
2023/09/26 07:07:24;;;;;;;0.20;0.20;;;;;;;10.75;79.47;98191.50;4992276;28;20060;-72
2023/09/26 07:09:52;;;;;;;0.20;0.20;;;;;;;10.92;79.36;98179.63;4988592;28;20392;-73
2023/09/26 07:12:20;;;;;;;0.20;0.20;;;;;;;10.98;78.92;98180.78;4987801;28;20050;-73
2023/09/26 07:14:48;;;;;;;0.20;0.20;;;;;;;11.04;78.55;98182.69;4983528;28;20053;-74
2023/09/26 07:17:15;;;;;;;0.20;0.20;;;;;;;11.13;78.79;98178.91;4990430;28;20050;-73
2023/09/26 07:19:43;;;;;;;0.45;0.45;;;;;;;11.26;78.29;98183.63;4995037;28;20038;-72
2023/09/26 07:22:11;;;;;;;0.20;0.20;;;;;;;11.29;78.77;98181.44;4990060;28;20054;-73
2023/09/26 07:24:40;;;;;;;0.22;0.22;;;;;;;11.42;78.69;98183.44;4995287;28;20042;-73
2023/09/26 07:27:17;;;;;;;0.17;0.17;;;;;;;11.54;78.58;98181.94;4990001;28;20470;-74
2023/09/26 07:29:46;;;;;;;0.20;0.20;;;;;;;11.66;78.95;98183.13;4991224;28;20042;-74
2023/09/26 07:32:15;;;;;;;0.20;0.20;;;;;;;11.70;79.48;98183.59;4987325;28;20118;-72
2023/09/26 07:34:43;;;;;;;0.20;0.20;;;;;;;11.75;79.70;98179.38;4990472;28;20038;-74
2023/09/26 07:37:12;;;;;;;0.20;0.20;;;;;;;11.88;79.91;98186.72;4992540;28;20038;-73
2023/09/26 07:39:43;;;;;;;0.20;0.20;;;;;;;11.98;80.26;98181.06;4989342;28;20423;-72
2023/09/26 07:42:12;;;;;;;0.20;0.20;;;;;;;12.18;80.07;98183.97;4991364;28;20574;-72
2023/09/26 07:44:39;;;;;;;0.22;0.22;;;;;;;12.27;81.42;98183.66;4988110;28;20049;-73
2023/09/26 07:47:07;;;;;;;0.20;0.20;;;;;;;12.38;81.61;98187.66;4990384;28;20048;-73
2023/09/26 07:49:35;;;;;;;0.10;0.10;;;;;;;12.49;81.83;98181.78;4987559;28;20506;-73
2023/09/26 07:52:02;;;;;;;0.28;0.28;;;;;;;12.59;81.24;98182.28;4989552;28;20038;-74
2023/09/26 07:54:32;;;;;;;0.20;0.20;;;;;;;12.69;81.35;98177.44;4982313;28;20047;-73
2023/09/26 07:57:00;;;;;;;0.20;0.20;;;;;;;12.84;81.64;98166.66;4986891;28;20411;-74
2023/09/26 07:59:28;;;;;;;0.20;0.20;;;;;;;13.01;80.95;98165.31;4986058;28;20119;-73
2023/09/26 08:01:56;;;;;;;0.20;0.15;;;;;;;13.13;81.38;98169.13;4985188;28;20092;-74
2023/09/26 08:04:24;;;;;;;0.20;0.20;;;;;;;13.26;81.07;98170.25;4991878;28;20039;-75
2023/09/26 08:06:52;;;;;;;0.20;0.20;;;;;;;13.39;81.34;98171.13;4987080;28;20046;-73
2023/09/26 08:09:19;;;;;;;0.20;0.20;;;;;;;13.51;81.03;98166.03;4990329;28;20092;-73
2023/09/26 08:11:47;;;;;;;0.20;0.20;;;;;;;13.70;81.12;98173.38;4989102;28;20050;-73
2023/09/26 08:14:16;;;;;;;0.20;0.20;;;;;;;13.82;81.43;98170.91;4990244;28;20491;-73
2023/09/26 08:16:44;;;;;;;0.10;0.10;;;;;;;14.03;82.08;98170.78;4987488;28;20129;-74
2023/09/26 08:19:11;;;;;;;0.20;0.20;;;;;;;14.24;82.21;98167.13;4991753;28;20053;-73
2023/09/26 08:21:39;;;;;;;0.20;0.20;;;;;;;14.45;82.54;98175.03;4988403;28;20105;-73
2023/09/26 08:24:08;;;;;;;0.13;0.13;;;;;;;14.68;83.00;98175.47;4992117;28;20117;-73
2023/09/26 08:26:35;;;;;;;0.30;0.30;;;;;;;14.83;82.58;98174.44;4988077;28;20549;-74
2023/09/26 08:29:04;;;;;;;0.50;0.50;;;;;;;15.02;82.71;98166.38;4990756;28;20034;-73
2023/09/26 08:31:35;;;;;;;0.20;0.20;;;;;;;15.17;82.35;98165.31;4988709;28;20157;-72
2023/09/26 08:34:03;;;;;;;0.25;0.25;;;;;;;15.33;82.02;98173.75;4986984;28;20117;-73
2023/09/26 08:36:32;;;;;;;0.20;0.20;;;;;;;15.60;81.96;98155.69;4988164;28;20043;-72
2023/09/26 08:39:00;;;;;;;0.28;0.28;;;;;;;15.81;81.12;98170.72;4987686;28;20077;-72
2023/09/26 08:41:28;;;;;;;0.20;0.20;;;;;;;15.94;80.60;98170.69;4984851;28;20046;-72
2023/09/26 08:43:56;;;;;;;0.32;0.32;;;;;;;16.03;80.19;98169.38;4988101;28;20097;-73
2023/09/26 08:46:23;;;;;;;0.20;0.20;;;;;;;16.11;79.95;98169.13;4994700;28;20440;-72
2023/09/26 08:48:55;;;;;;;0.30;0.30;;;;;;;16.20;79.89;98175.09;4981931;28;20043;-72
2023/09/26 08:51:25;;;;;;;0.20;0.20;;;;;;;16.30;79.41;98171.94;4990440;28;20077;-71
2023/09/26 08:53:53;;;;;;;0.15;0.15;;;;;;;16.40;79.29;98162.31;4988581;28;20105;-71
2023/09/26 08:56:21;;;;;;;0.30;0.30;;;;;;;16.43;78.90;98161.06;4989223;28;20046;-71
2023/09/26 08:58:50;;;;;;;0.20;0.20;;;;;;;16.46;78.87;98169.53;4995513;28;20042;-71
2023/09/26 09:01:19;;;;;;;0.20;0.20;;;;;;;16.53;79.06;98151.44;5001668;28;20042;-73
2023/09/26 09:03:47;;;;;;;0.20;0.20;;;;;;;16.61;78.45;98161.13;4994769;28;20042;-72
2023/09/26 09:06:16;;;;;;;0.20;0.20;;;;;;;16.70;78.20;98154.47;4997135;28;20081;-72
2023/09/26 09:08:44;;;;;;;0.22;0.22;;;;;;;16.74;77.74;98160.25;5006735;28;20129;-71
2023/09/26 09:11:12;;;;;;;0.30;0.30;;;;;;;16.76;78.00;98147.38;5002655;28;20419;-71
2023/09/26 09:13:40;;;;;;;0.30;0.30;;;;;;;16.82;77.79;98154.56;4993180;28;20057;-71
2023/09/26 09:16:08;;;;;;;0.20;0.20;;;;;;;16.92;77.55;98146.00;4992907;28;20131;-71
2023/09/26 09:18:37;;;;;;;0.40;0.40;;;;;;;17.03;77.16;98147.94;4992657;28;20034;-71
2023/09/26 09:21:25;;;;;;;0.30;0.30;;;;;;;17.06;77.04;98137.56;4992196;28;20042;-71
2023/09/26 09:23:54;;;;;;;0.47;0.30;;;;;;;17.12;76.56;98144.78;4990505;28;20038;-71
2023/09/26 09:26:22;;;;;;;0.25;0.25;;;;;;;17.10;76.54;98137.94;4993497;28;20124;-71
2023/09/26 09:28:52;;;;;;;0.25;0.25;;;;;;;17.13;76.14;98141.00;4989435;28;20117;-71
2023/09/26 09:31:20;;;;;;;0.25;0.25;;;;;;;17.19;76.26;98137.44;4990151;28;20130;-71
2023/09/26 09:33:52;;;;;;;0.30;0.30;;;;;;;17.32;75.52;98139.16;4991265;28;20407;-71
2023/09/26 09:36:21;;;;;;;0.30;0.30;;;;;;;17.44;75.17;98133.84;4991598;28;20038;-72
2023/09/26 09:38:49;;;;;;;0.28;0.28;;;;;;;17.53;74.71;98127.09;4989458;28;20042;-72
2023/09/26 09:41:17;;;;;;;0.32;0.32;;;;;;;17.54;74.55;98134.16;4993527;28;20049;-74
2023/09/26 09:43:45;;;;;;;0.30;0.30;;;;;;;17.55;74.35;98127.66;4991570;28;20514;-71
2023/09/26 09:46:13;;;;;;;0.20;0.20;;;;;;;17.59;74.37;98128.88;4992763;28;20052;-72
2023/09/26 09:48:42;;;;;;;0.20;0.20;;;;;;;17.68;73.72;98124.03;4991305;28;20396;-73
2023/09/26 09:51:13;;;;;;;0.32;0.32;;;;;;;17.74;73.74;98118.56;4994568;28;20157;-72
2023/09/26 09:53:54;;;;;;;0.30;0.30;;;;;;;17.78;73.44;98127.00;4992750;28;20081;-71
2023/09/26 09:56:24;;;;;;;0.30;0.30;;;;;;;17.78;73.24;98122.44;4994661;28;20424;-71
2023/09/26 09:58:52;;;;;;;0.30;0.30;;;;;;;17.77;73.28;98123.47;4996678;28;20042;-72
2023/09/26 10:01:20;;;;;;;0.20;0.20;;;;;;;17.73;73.18;98121.47;4992863;28;20046;-72
2023/09/26 10:03:50;;;;;;;0.30;0.20;;;;;;;17.73;73.09;98114.22;4995155;28;20046;-72
2023/09/26 10:06:21;;;;;;;0.30;0.30;;;;;;;17.88;72.69;98120.00;4996103;28;20404;-72
2023/09/26 10:08:50;;;;;;;0.20;0.20;;;;;;;17.97;72.74;98117.81;4996683;28;20053;-72
2023/09/26 10:11:19;;;;;;;0.40;0.22;;;;;;;18.05;72.44;98116.69;4991049;28;20072;-72
2023/09/26 10:13:47;;;;;;;0.15;0.15;;;;;;;18.20;71.99;98119.78;4995258;28;20052;-72
2023/09/26 10:16:17;;;;;;;0.28;0.28;;;;;;;18.24;71.71;98119.09;4989072;28;20351;-72
2023/09/26 10:18:49;;;;;;;0.20;0.20;;;;;;;18.25;71.64;98115.34;4989242;28;20038;-72
2023/09/26 10:21:25;;;;;;;0.20;0.20;;;;;;;18.14;71.56;98104.50;4992560;28;20045;-72
2023/09/26 10:24:29;;;;;;;0.43;0.43;;;;;;;18.25;71.75;98106.41;4988974;28;20042;-72
2023/09/26 10:27:07;;;;;;;0.60;0.30;;;;;;;18.24;71.57;98104.78;4988768;28;20065;-72
2023/09/26 10:29:54;;;;;;;0.10;0.10;;;;;;;18.31;71.25;98097.38;4989623;28;20512;-72
2023/09/26 10:32:23;;;;;;;0.55;0.22;;;;;;;18.30;71.33;98099.25;4988239;28;20070;-73
2023/09/26 10:34:51;;;;;;;0.32;0.30;;;;;;;18.38;71.27;98089.16;4985250;28;20130;-73
2023/09/26 10:37:21;;;;;;;0.38;0.30;;;;;;;18.55;70.36;98087.44;4987771;28;20092;-73
2023/09/26 10:39:51;;;;;;;0.30;0.30;;;;;;;18.63;70.27;98087.94;4991317;28;20425;-73
2023/09/26 10:42:19;;;;;;;0.17;0.17;;;;;;;18.69;69.58;98094.28;4989655;28;20453;-73
2023/09/26 10:45:09;;;;;;;0.17;0.17;;;;;;;18.80;69.60;98088.06;4989570;28;20049;-73
2023/09/26 10:47:39;;;;;;;0.30;0.30;;;;;;;18.89;69.03;98083.16;4993605;28;20547;-73
2023/09/26 10:50:09;;;;;;;0.30;0.30;;;;;;;18.99;68.90;98078.78;4989505;28;20057;-73
2023/09/26 10:52:40;;;;;;;0.22;0.22;;;;;;;19.28;67.92;98086.97;4992968;28;20096;-73
2023/09/26 10:55:29;;;;;;;0.20;0.20;;;;;;;19.47;66.83;98095.78;4986661;28;20055;-72
2023/09/26 10:57:57;;;;;;;0.20;0.20;;;;;;;19.55;66.43;98071.88;4986552;28;20504;-73
2023/09/26 11:00:24;;;;;;;0.20;0.20;;;;;;;19.72;65.81;98082.78;4991762;28;20054;-71
2023/09/26 11:02:52;;;;;;;0.20;0.20;;;;;;;19.94;65.55;98082.91;4992203;28;20065;-71
2023/09/26 11:05:27;;;;;;;0.30;0.20;;;;;;;20.03;65.24;98078.78;4993144;28;20570;-72
2023/09/26 11:07:56;;;;;;;0.10;0.10;;;;;;;20.21;64.69;98081.25;4993539;28;20038;-70
2023/09/26 11:10:24;;;;;;;0.20;0.20;;;;;;;20.37;63.78;98074.22;4990099;28;20049;-71
2023/09/26 11:12:53;;;;;;;0.22;0.22;;;;;;;20.63;62.77;98073.59;4992467;28;20388;-71
2023/09/26 11:15:21;;;;;;;0.20;0.20;;;;;;;20.77;61.96;98074.06;4988336;28;20056;-73
2023/09/26 11:17:50;;;;;;;0.20;0.20;;;;;;;20.86;61.65;98076.13;4990254;28;20046;-72
2023/09/26 11:20:18;;;;;;;0.20;0.20;;;;;;;20.99;61.52;98072.22;4982030;28;20049;-72
2023/09/26 11:22:46;;;;;;;0.20;0.20;;;;;;;20.96;61.27;98080.06;4989385;28;20118;-72
2023/09/26 11:25:15;;;;;;;0.25;0.25;;;;;;;21.20;60.84;98076.06;4987404;28;20046;-72
2023/09/26 11:27:44;;;;;;;0.17;0.17;;;;;;;21.35;59.89;98076.28;4990611;28;20451;-72
2023/09/26 11:30:16;;;;;;;0.20;0.20;;;;;;;21.56;59.77;98078.19;4992571;28;20038;-72
2023/09/26 11:32:46;;;;;;;0.20;0.20;;;;;;;21.81;59.11;98074.13;4989115;28;20058;-72
2023/09/26 11:35:15;;;;;;;0.25;0.25;;;;;;;21.76;58.95;98074.06;4991609;28;20041;-72
2023/09/26 11:37:43;;;;;;;0.10;0.10;;;;;;;22.00;58.11;98067.31;4988513;28;20046;-72
2023/09/26 11:40:12;;;;;;;0.20;0.20;;;;;;;22.07;57.81;98067.91;4991298;28;20038;-72
2023/09/26 11:42:46;;;;;;;0.25;0.25;;;;;;;22.07;57.86;98064.38;4987874;28;20042;-72
2023/09/26 11:45:22;;;;;;;0.30;0.30;;;;;;;22.38;57.23;98073.66;4993828;28;20084;-73